sensor_id;sensor_type;location;lat;lon;timestamp;P1;durP1;ratioP1;P2;durP2;ratioP2
49942;SDS011;36011;53.362;58.948;2022-09-06T00:01:31;3.90;;;2.63;;
49942;SDS011;36011;53.362;58.948;2022-09-06T00:04:32;3.15;;;2.03;;
49942;SDS011;36011;53.362;58.948;2022-09-06T00:10:38;3.10;;;1.75;;
49942;SDS011;36011;53.362;58.948;2022-09-06T00:13:42;4.82;;;2.00;;
49942;SDS011;36011;53.362;58.948;2022-09-06T00:16:44;1.83;;;1.50;;
49942;SDS011;36011;53.362;58.948;2022-09-06T00:19:46;3.70;;;2.03;;
49942;SDS011;36011;53.362;58.948;2022-09-06T00:22:50;2.40;;;1.75;;
49942;SDS011;36011;53.362;58.948;2022-09-06T00:26:04;3.42;;;2.03;;
49942;SDS011;36011;53.362;58.948;2022-09-06T00:29:08;5.40;;;1.88;;
49942;SDS011;36011;53.362;58.948;2022-09-06T00:32:12;3.75;;;2.40;;
49942;SDS011;36011;53.362;58.948;2022-09-06T00:35:13;3.50;;;2.10;;
49942;SDS011;36011;53.362;58.948;2022-09-06T00:38:15;4.15;;;2.05;;
49942;SDS011;36011;53.362;58.948;2022-09-06T00:41:17;2.47;;;2.10;;
49942;SDS011;36011;53.362;58.948;2022-09-06T00:44:19;3.08;;;2.03;;
49942;SDS011;36011;53.362;58.948;2022-09-06T00:47:22;3.90;;;2.65;;
49942;SDS011;36011;53.362;58.948;2022-09-06T00:50:24;4.38;;;2.58;;
49942;SDS011;36011;53.362;58.948;2022-09-06T00:53:27;2.30;;;2.10;;
49942;SDS011;36011;53.362;58.948;2022-09-06T00:56:34;5.72;;;2.25;;
49942;SDS011;36011;53.362;58.948;2022-09-06T00:59:39;3.70;;;2.15;;
49942;SDS011;36011;53.362;58.948;2022-09-06T01:02:42;3.77;;;2.50;;
49942;SDS011;36011;53.362;58.948;2022-09-06T01:15:41;5.28;;;2.47;;
49942;SDS011;36011;53.362;58.948;2022-09-06T01:26:02;5.70;;;2.50;;
49942;SDS011;36011;53.362;58.948;2022-09-06T01:29:07;4.10;;;2.40;;
49942;SDS011;36011;53.362;58.948;2022-09-06T01:35:51;4.45;;;2.90;;
49942;SDS011;36011;53.362;58.948;2022-09-06T01:38:57;6.30;;;3.53;;
49942;SDS011;36011;53.362;58.948;2022-09-06T01:42:04;5.25;;;3.08;;
49942;SDS011;36011;53.362;58.948;2022-09-06T01:45:17;5.40;;;3.38;;
49942;SDS011;36011;53.362;58.948;2022-09-06T01:55:29;6.90;;;2.30;;
49942;SDS011;36011;53.362;58.948;2022-09-06T01:59:24;2.40;;;2.10;;
49942;SDS011;36011;53.362;58.948;2022-09-06T02:02:39;5.38;;;2.28;;
49942;SDS011;36011;53.362;58.948;2022-09-06T02:05:46;4.38;;;2.50;;
49942;SDS011;36011;53.362;58.948;2022-09-06T02:08:59;2.95;;;2.03;;
49942;SDS011;36011;53.362;58.948;2022-09-06T02:12:07;4.57;;;2.40;;
49942;SDS011;36011;53.362;58.948;2022-09-06T02:15:25;3.15;;;2.30;;
49942;SDS011;36011;53.362;58.948;2022-09-06T02:18:34;4.30;;;1.73;;
49942;SDS011;36011;53.362;58.948;2022-09-06T02:21:43;1.80;;;1.33;;
49942;SDS011;36011;53.362;58.948;2022-09-06T02:24:48;4.10;;;2.13;;
49942;SDS011;36011;53.362;58.948;2022-09-06T02:27:53;2.13;;;1.83;;
49942;SDS011;36011;53.362;58.948;2022-09-06T02:31:01;3.67;;;1.80;;
49942;SDS011;36011;53.362;58.948;2022-09-06T02:34:07;2.70;;;1.70;;
49942;SDS011;36011;53.362;58.948;2022-09-06T02:37:14;2.55;;;1.92;;
49942;SDS011;36011;53.362;58.948;2022-09-06T02:40:16;3.42;;;2.17;;
49942;SDS011;36011;53.362;58.948;2022-09-06T02:43:21;3.70;;;2.00;;
49942;SDS011;36011;53.362;58.948;2022-09-06T02:46:25;3.63;;;2.30;;
49942;SDS011;36011;53.362;58.948;2022-09-06T02:49:29;2.53;;;2.00;;
49942;SDS011;36011;53.362;58.948;2022-09-06T02:52:30;4.32;;;2.45;;
49942;SDS011;36011;53.362;58.948;2022-09-06T02:55:32;2.88;;;2.15;;
49942;SDS011;36011;53.362;58.948;2022-09-06T02:58:37;4.53;;;2.40;;
49942;SDS011;36011;53.362;58.948;2022-09-06T03:01:42;4.35;;;1.98;;
49942;SDS011;36011;53.362;58.948;2022-09-06T03:04:46;3.42;;;2.20;;
49942;SDS011;36011;53.362;58.948;2022-09-06T03:07:51;2.03;;;1.73;;
49942;SDS011;36011;53.362;58.948;2022-09-06T03:10:58;2.28;;;2.00;;
49942;SDS011;36011;53.362;58.948;2022-09-06T03:14:00;3.63;;;2.00;;
49942;SDS011;36011;53.362;58.948;2022-09-06T03:17:02;2.17;;;1.95;;
49942;SDS011;36011;53.362;58.948;2022-09-06T03:20:06;3.15;;;2.25;;
49942;SDS011;36011;53.362;58.948;2022-09-06T03:23:11;5.03;;;2.63;;
49942;SDS011;36011;53.362;58.948;2022-09-06T03:26:15;3.95;;;2.45;;
49942;SDS011;36011;53.362;58.948;2022-09-06T03:29:22;6.65;;;3.25;;
49942;SDS011;36011;53.362;58.948;2022-09-06T03:32:26;5.82;;;2.83;;
49942;SDS011;36011;53.362;58.948;2022-09-06T03:35:30;4.07;;;2.83;;
49942;SDS011;36011;53.362;58.948;2022-09-06T03:38:31;4.43;;;2.67;;
49942;SDS011;36011;53.362;58.948;2022-09-06T03:41:33;6.30;;;2.53;;
49942;SDS011;36011;53.362;58.948;2022-09-06T03:44:34;4.78;;;2.75;;
49942;SDS011;36011;53.362;58.948;2022-09-06T03:47:38;4.72;;;2.67;;
49942;SDS011;36011;53.362;58.948;2022-09-06T03:50:46;7.07;;;3.28;;
49942;SDS011;36011;53.362;58.948;2022-09-06T03:53:51;6.60;;;3.00;;
49942;SDS011;36011;53.362;58.948;2022-09-06T03:56:54;3.72;;;2.60;;
49942;SDS011;36011;53.362;58.948;2022-09-06T03:59:55;5.45;;;2.80;;
49942;SDS011;36011;53.362;58.948;2022-09-06T04:03:02;2.38;;;2.13;;
49942;SDS011;36011;53.362;58.948;2022-09-06T04:06:04;3.63;;;2.70;;
49942;SDS011;36011;53.362;58.948;2022-09-06T04:09:06;8.15;;;3.70;;
49942;SDS011;36011;53.362;58.948;2022-09-06T04:12:10;7.10;;;3.40;;
49942;SDS011;36011;53.362;58.948;2022-09-06T04:15:12;3.20;;;2.65;;
49942;SDS011;36011;53.362;58.948;2022-09-06T04:18:16;5.18;;;3.85;;
49942;SDS011;36011;53.362;58.948;2022-09-06T04:21:20;11.52;;;5.03;;
49942;SDS011;36011;53.362;58.948;2022-09-06T04:24:22;9.23;;;4.75;;
49942;SDS011;36011;53.362;58.948;2022-09-06T04:27:23;11.20;;;4.80;;
49942;SDS011;36011;53.362;58.948;2022-09-06T04:30:28;8.60;;;4.78;;
49942;SDS011;36011;53.362;58.948;2022-09-06T04:33:34;8.10;;;4.20;;
49942;SDS011;36011;53.362;58.948;2022-09-06T04:36:39;8.85;;;4.53;;
49942;SDS011;36011;53.362;58.948;2022-09-06T04:39:40;7.25;;;3.65;;
49942;SDS011;36011;53.362;58.948;2022-09-06T04:42:44;6.43;;;3.78;;
49942;SDS011;36011;53.362;58.948;2022-09-06T04:45:51;5.95;;;3.70;;
49942;SDS011;36011;53.362;58.948;2022-09-06T04:48:53;7.20;;;4.18;;
49942;SDS011;36011;53.362;58.948;2022-09-06T04:51:58;7.50;;;4.78;;
49942;SDS011;36011;53.362;58.948;2022-09-06T04:54:59;7.38;;;4.70;;
49942;SDS011;36011;53.362;58.948;2022-09-06T04:58:01;10.52;;;5.15;;
49942;SDS011;36011;53.362;58.948;2022-09-06T05:01:03;8.57;;;5.57;;
49942;SDS011;36011;53.362;58.948;2022-09-06T05:04:05;9.38;;;4.97;;
49942;SDS011;36011;53.362;58.948;2022-09-06T05:07:09;7.95;;;4.95;;
49942;SDS011;36011;53.362;58.948;2022-09-06T05:10:13;7.43;;;4.28;;
49942;SDS011;36011;53.362;58.948;2022-09-06T05:13:18;6.03;;;3.55;;
49942;SDS011;36011;53.362;58.948;2022-09-06T05:16:19;6.45;;;3.83;;
49942;SDS011;36011;53.362;58.948;2022-09-06T05:19:23;7.60;;;5.65;;
49942;SDS011;36011;53.362;58.948;2022-09-06T05:22:30;11.50;;;6.10;;
49942;SDS011;36011;53.362;58.948;2022-09-06T05:25:35;8.43;;;4.30;;
49942;SDS011;36011;53.362;58.948;2022-09-06T05:34:44;5.63;;;2.97;;
49942;SDS011;36011;53.362;58.948;2022-09-06T05:37:48;4.35;;;2.95;;
49942;SDS011;36011;53.362;58.948;2022-09-06T05:40:53;5.82;;;3.47;;
49942;SDS011;36011;53.362;58.948;2022-09-06T05:43:54;5.43;;;3.55;;
49942;SDS011;36011;53.362;58.948;2022-09-06T05:46:56;5.25;;;2.67;;
49942;SDS011;36011;53.362;58.948;2022-09-06T05:50:01;4.38;;;2.50;;
49942;SDS011;36011;53.362;58.948;2022-09-06T05:53:02;3.53;;;2.30;;
49942;SDS011;36011;53.362;58.948;2022-09-06T05:56:04;2.63;;;1.90;;
49942;SDS011;36011;53.362;58.948;2022-09-06T05:59:09;2.42;;;1.50;;
49942;SDS011;36011;53.362;58.948;2022-09-06T06:02:13;4.45;;;1.60;;
49942;SDS011;36011;53.362;58.948;2022-09-06T06:05:14;1.98;;;1.67;;
49942;SDS011;36011;53.362;58.948;2022-09-06T06:08:16;3.50;;;1.50;;
49942;SDS011;36011;53.362;58.948;2022-09-06T06:11:17;4.18;;;2.03;;
49942;SDS011;36011;53.362;58.948;2022-09-06T06:14:19;4.43;;;2.35;;
49942;SDS011;36011;53.362;58.948;2022-09-06T06:17:23;3.25;;;1.60;;
49942;SDS011;36011;53.362;58.948;2022-09-06T06:20:25;3.50;;;2.03;;
49942;SDS011;36011;53.362;58.948;2022-09-06T06:23:29;4.70;;;2.33;;
49942;SDS011;36011;53.362;58.948;2022-09-06T06:26:31;4.50;;;2.50;;
49942;SDS011;36011;53.362;58.948;2022-09-06T06:29:35;5.25;;;2.70;;
49942;SDS011;36011;53.362;58.948;2022-09-06T06:32:39;8.05;;;3.53;;
49942;SDS011;36011;53.362;58.948;2022-09-06T06:35:41;5.78;;;3.00;;
49942;SDS011;36011;53.362;58.948;2022-09-06T06:38:55;8.57;;;3.92;;
49942;SDS011;36011;53.362;58.948;2022-09-06T06:41:58;6.00;;;2.80;;
49942;SDS011;36011;53.362;58.948;2022-09-06T06:44:59;6.80;;;2.80;;
49942;SDS011;36011;53.362;58.948;2022-09-06T06:48:06;4.57;;;2.55;;
49942;SDS011;36011;53.362;58.948;2022-09-06T06:51:07;2.70;;;1.98;;
49942;SDS011;36011;53.362;58.948;2022-09-06T06:54:12;5.60;;;3.40;;
49942;SDS011;36011;53.362;58.948;2022-09-06T06:57:13;6.15;;;3.70;;
49942;SDS011;36011;53.362;58.948;2022-09-06T07:00:15;5.10;;;2.95;;
49942;SDS011;36011;53.362;58.948;2022-09-06T07:03:16;5.28;;;2.90;;
49942;SDS011;36011;53.362;58.948;2022-09-06T07:06:20;6.32;;;3.13;;
49942;SDS011;36011;53.362;58.948;2022-09-06T07:09:26;9.27;;;3.60;;
49942;SDS011;36011;53.362;58.948;2022-09-06T07:12:30;9.30;;;3.50;;
49942;SDS011;36011;53.362;58.948;2022-09-06T07:15:32;5.82;;;2.90;;
49942;SDS011;36011;53.362;58.948;2022-09-06T07:18:38;4.95;;;2.80;;
49942;SDS011;36011;53.362;58.948;2022-09-06T07:21:47;4.75;;;2.85;;
49942;SDS011;36011;53.362;58.948;2022-09-06T07:24:48;4.15;;;2.78;;
49942;SDS011;36011;53.362;58.948;2022-09-06T07:27:56;4.60;;;2.63;;
49942;SDS011;36011;53.362;58.948;2022-09-06T07:31:05;4.15;;;3.10;;
49942;SDS011;36011;53.362;58.948;2022-09-06T07:34:09;8.13;;;3.50;;
49942;SDS011;36011;53.362;58.948;2022-09-06T07:37:11;7.28;;;4.28;;
49942;SDS011;36011;53.362;58.948;2022-09-06T07:40:12;3.80;;;2.30;;
49942;SDS011;36011;53.362;58.948;2022-09-06T07:43:16;5.50;;;2.60;;
49942;SDS011;36011;53.362;58.948;2022-09-06T07:46:18;5.18;;;1.83;;
49942;SDS011;36011;53.362;58.948;2022-09-06T07:49:19;6.20;;;2.90;;
49942;SDS011;36011;53.362;58.948;2022-09-06T07:52:24;7.80;;;3.35;;
49942;SDS011;36011;53.362;58.948;2022-09-06T07:55:30;8.23;;;3.95;;
49942;SDS011;36011;53.362;58.948;2022-09-06T07:58:35;4.72;;;2.47;;
49942;SDS011;36011;53.362;58.948;2022-09-06T08:04:40;8.25;;;4.50;;
49942;SDS011;36011;53.362;58.948;2022-09-06T08:07:45;7.75;;;4.32;;
49942;SDS011;36011;53.362;58.948;2022-09-06T08:10:49;6.18;;;4.07;;
49942;SDS011;36011;53.362;58.948;2022-09-06T08:13:51;7.45;;;3.83;;
49942;SDS011;36011;53.362;58.948;2022-09-06T08:16:57;3.55;;;2.08;;
49942;SDS011;36011;53.362;58.948;2022-09-06T08:20:02;3.17;;;2.53;;
49942;SDS011;36011;53.362;58.948;2022-09-06T08:23:10;2.25;;;1.42;;
49942;SDS011;36011;53.362;58.948;2022-09-06T08:26:12;4.07;;;2.13;;
49942;SDS011;36011;53.362;58.948;2022-09-06T08:29:14;3.22;;;2.33;;
49942;SDS011;36011;53.362;58.948;2022-09-06T08:32:16;3.70;;;2.28;;
49942;SDS011;36011;53.362;58.948;2022-09-06T08:35:19;12.52;;;2.08;;
49942;SDS011;36011;53.362;58.948;2022-09-06T08:38:24;5.13;;;2.42;;
49942;SDS011;36011;53.362;58.948;2022-09-06T08:41:30;3.00;;;1.90;;
49942;SDS011;36011;53.362;58.948;2022-09-06T08:44:49;4.30;;;2.20;;
49942;SDS011;36011;53.362;58.948;2022-09-06T08:47:53;3.08;;;1.80;;
49942;SDS011;36011;53.362;58.948;2022-09-06T08:51:22;5.03;;;1.90;;
49942;SDS011;36011;53.362;58.948;2022-09-06T08:57:45;4.55;;;2.20;;
49942;SDS011;36011;53.362;58.948;2022-09-06T09:00:52;4.53;;;2.00;;
49942;SDS011;36011;53.362;58.948;2022-09-06T09:04:01;3.53;;;2.05;;
49942;SDS011;36011;53.362;58.948;2022-09-06T09:10:48;2.67;;;1.85;;
49942;SDS011;36011;53.362;58.948;2022-09-06T09:13:58;6.70;;;2.42;;
49942;SDS011;36011;53.362;58.948;2022-09-06T09:17:11;3.30;;;2.08;;
49942;SDS011;36011;53.362;58.948;2022-09-06T09:20:20;2.45;;;1.80;;
49942;SDS011;36011;53.362;58.948;2022-09-06T09:23:22;4.75;;;1.70;;
49942;SDS011;36011;53.362;58.948;2022-09-06T09:26:27;3.35;;;1.98;;
49942;SDS011;36011;53.362;58.948;2022-09-06T09:29:32;5.55;;;2.65;;
49942;SDS011;36011;53.362;58.948;2022-09-06T09:32:53;6.53;;;2.92;;
49942;SDS011;36011;53.362;58.948;2022-09-06T09:35:55;8.25;;;4.07;;
49942;SDS011;36011;53.362;58.948;2022-09-06T09:39:07;6.80;;;2.90;;
49942;SDS011;36011;53.362;58.948;2022-09-06T09:42:21;8.10;;;3.17;;
49942;SDS011;36011;53.362;58.948;2022-09-06T09:45:29;5.28;;;2.80;;
49942;SDS011;36011;53.362;58.948;2022-09-06T09:48:34;5.68;;;2.35;;
49942;SDS011;36011;53.362;58.948;2022-09-06T09:51:37;7.63;;;3.13;;
49942;SDS011;36011;53.362;58.948;2022-09-06T09:55:00;17.50;;;3.80;;
49942;SDS011;36011;53.362;58.948;2022-09-06T09:58:06;5.43;;;2.97;;
49942;SDS011;36011;53.362;58.948;2022-09-06T10:01:20;5.25;;;2.17;;
49942;SDS011;36011;53.362;58.948;2022-09-06T10:07:42;5.03;;;2.05;;
49942;SDS011;36011;53.362;58.948;2022-09-06T10:10:52;17.40;;;10.10;;
49942;SDS011;36011;53.362;58.948;2022-09-06T10:14:08;18.17;;;9.73;;
49942;SDS011;36011;53.362;58.948;2022-09-06T10:17:18;6.00;;;3.92;;
49942;SDS011;36011;53.362;58.948;2022-09-06T10:20:21;4.85;;;2.53;;
49942;SDS011;36011;53.362;58.948;2022-09-06T10:27:08;2.95;;;1.83;;
49942;SDS011;36011;53.362;58.948;2022-09-06T10:30:12;1.90;;;1.60;;
49942;SDS011;36011;53.362;58.948;2022-09-06T10:33:26;3.60;;;3.00;;
49942;SDS011;36011;53.362;58.948;2022-09-06T10:43:22;4.15;;;1.35;;
49942;SDS011;36011;53.362;58.948;2022-09-06T10:46:30;3.42;;;1.52;;
49942;SDS011;36011;53.362;58.948;2022-09-06T10:49:43;4.05;;;1.58;;
49942;SDS011;36011;53.362;58.948;2022-09-06T10:52:50;3.42;;;1.55;;
49942;SDS011;36011;53.362;58.948;2022-09-06T10:56:00;2.97;;;1.58;;
49942;SDS011;36011;53.362;58.948;2022-09-06T10:59:29;5.20;;;1.73;;
49942;SDS011;36011;53.362;58.948;2022-09-06T11:05:56;4.65;;;1.90;;
49942;SDS011;36011;53.362;58.948;2022-09-06T11:09:15;6.95;;;2.28;;
49942;SDS011;36011;53.362;58.948;2022-09-06T11:12:40;4.75;;;2.42;;
49942;SDS011;36011;53.362;58.948;2022-09-06T11:19:16;6.35;;;2.53;;
49942;SDS011;36011;53.362;58.948;2022-09-06T11:28:57;3.58;;;2.60;;
49942;SDS011;36011;53.362;58.948;2022-09-06T11:35:05;7.40;;;2.65;;
49942;SDS011;36011;53.362;58.948;2022-09-06T11:41:16;5.63;;;3.17;;
49942;SDS011;36011;53.362;58.948;2022-09-06T11:47:52;5.35;;;3.38;;
49942;SDS011;36011;53.362;58.948;2022-09-06T12:00:19;6.00;;;3.33;;
49942;SDS011;36011;53.362;58.948;2022-09-06T12:04:12;5.22;;;3.47;;
49942;SDS011;36011;53.362;58.948;2022-09-06T12:07:07;4.97;;;2.90;;
49942;SDS011;36011;53.362;58.948;2022-09-06T12:13:53;4.35;;;2.88;;
49942;SDS011;36011;53.362;58.948;2022-09-06T12:20:03;7.90;;;3.42;;
49942;SDS011;36011;53.362;58.948;2022-09-06T12:23:06;6.30;;;3.60;;
49942;SDS011;36011;53.362;58.948;2022-09-06T12:26:08;7.03;;;3.58;;
49942;SDS011;36011;53.362;58.948;2022-09-06T12:29:10;5.28;;;3.78;;
49942;SDS011;36011;53.362;58.948;2022-09-06T12:32:18;8.73;;;5.10;;
49942;SDS011;36011;53.362;58.948;2022-09-06T12:35:45;11.35;;;5.93;;
49942;SDS011;36011;53.362;58.948;2022-09-06T12:38:53;14.25;;;6.65;;
49942;SDS011;36011;53.362;58.948;2022-09-06T12:41:59;9.85;;;6.03;;
49942;SDS011;36011;53.362;58.948;2022-09-06T12:45:03;11.40;;;5.55;;
49942;SDS011;36011;53.362;58.948;2022-09-06T12:48:07;7.07;;;4.60;;
49942;SDS011;36011;53.362;58.948;2022-09-06T12:51:16;6.95;;;4.68;;
49942;SDS011;36011;53.362;58.948;2022-09-06T12:54:23;8.90;;;3.97;;
49942;SDS011;36011;53.362;58.948;2022-09-06T12:57:33;7.20;;;4.63;;
49942;SDS011;36011;53.362;58.948;2022-09-06T13:03:44;7.43;;;4.50;;
49942;SDS011;36011;53.362;58.948;2022-09-06T13:07:14;7.50;;;5.20;;
49942;SDS011;36011;53.362;58.948;2022-09-06T13:10:25;7.50;;;3.60;;
49942;SDS011;36011;53.362;58.948;2022-09-06T13:13:31;5.30;;;3.90;;
49942;SDS011;36011;53.362;58.948;2022-09-06T13:16:45;5.72;;;3.35;;
49942;SDS011;36011;53.362;58.948;2022-09-06T13:19:50;3.55;;;2.88;;
49942;SDS011;36011;53.362;58.948;2022-09-06T13:22:51;6.47;;;3.50;;
49942;SDS011;36011;53.362;58.948;2022-09-06T13:26:05;6.25;;;3.38;;
49942;SDS011;36011;53.362;58.948;2022-09-06T13:29:10;5.03;;;3.05;;
49942;SDS011;36011;53.362;58.948;2022-09-06T13:32:11;4.28;;;3.22;;
49942;SDS011;36011;53.362;58.948;2022-09-06T13:35:24;3.90;;;3.17;;
49942;SDS011;36011;53.362;58.948;2022-09-06T13:38:33;4.72;;;3.03;;
49942;SDS011;36011;53.362;58.948;2022-09-06T13:41:42;5.60;;;3.30;;
49942;SDS011;36011;53.362;58.948;2022-09-06T13:44:44;5.85;;;3.65;;
49942;SDS011;36011;53.362;58.948;2022-09-06T13:47:45;6.50;;;4.10;;
49942;SDS011;36011;53.362;58.948;2022-09-06T13:50:50;8.23;;;4.72;;
49942;SDS011;36011;53.362;58.948;2022-09-06T13:54:01;8.23;;;5.50;;
49942;SDS011;36011;53.362;58.948;2022-09-06T13:57:07;9.77;;;5.55;;
49942;SDS011;36011;53.362;58.948;2022-09-06T14:00:11;10.40;;;5.45;;
49942;SDS011;36011;53.362;58.948;2022-09-06T14:03:19;10.60;;;5.20;;
49942;SDS011;36011;53.362;58.948;2022-09-06T14:06:28;8.18;;;5.20;;
49942;SDS011;36011;53.362;58.948;2022-09-06T14:09:32;10.23;;;6.43;;
49942;SDS011;36011;53.362;58.948;2022-09-06T14:12:34;9.88;;;6.40;;
49942;SDS011;36011;53.362;58.948;2022-09-06T14:15:41;10.45;;;6.90;;
49942;SDS011;36011;53.362;58.948;2022-09-06T14:21:45;12.00;;;6.25;;
49942;SDS011;36011;53.362;58.948;2022-09-06T14:24:51;8.38;;;4.93;;
49942;SDS011;36011;53.362;58.948;2022-09-06T14:27:52;5.20;;;4.03;;
49942;SDS011;36011;53.362;58.948;2022-09-06T14:30:54;7.80;;;4.32;;
49942;SDS011;36011;53.362;58.948;2022-09-06T14:33:58;6.30;;;4.10;;
49942;SDS011;36011;53.362;58.948;2022-09-06T14:37:04;4.95;;;4.07;;
49942;SDS011;36011;53.362;58.948;2022-09-06T14:40:09;5.10;;;3.88;;
49942;SDS011;36011;53.362;58.948;2022-09-06T14:43:15;5.35;;;4.13;;
49942;SDS011;36011;53.362;58.948;2022-09-06T14:46:24;6.00;;;5.13;;
49942;SDS011;36011;53.362;58.948;2022-09-06T14:49:32;7.68;;;5.80;;
49942;SDS011;36011;53.362;58.948;2022-09-06T14:52:33;9.15;;;6.80;;
49942;SDS011;36011;53.362;58.948;2022-09-06T14:55:34;9.50;;;6.55;;
49942;SDS011;36011;53.362;58.948;2022-09-06T14:58:38;7.03;;;6.07;;
49942;SDS011;36011;53.362;58.948;2022-09-06T15:01:40;10.20;;;7.30;;
49942;SDS011;36011;53.362;58.948;2022-09-06T15:04:44;9.88;;;6.63;;
49942;SDS011;36011;53.362;58.948;2022-09-06T15:07:51;9.60;;;6.78;;
49942;SDS011;36011;53.362;58.948;2022-09-06T15:10:54;13.30;;;7.95;;
49942;SDS011;36011;53.362;58.948;2022-09-06T15:14:01;11.65;;;7.35;;
49942;SDS011;36011;53.362;58.948;2022-09-06T15:17:08;14.48;;;8.65;;
49942;SDS011;36011;53.362;58.948;2022-09-06T15:20:18;14.88;;;8.95;;
49942;SDS011;36011;53.362;58.948;2022-09-06T15:23:21;11.30;;;7.40;;
49942;SDS011;36011;53.362;58.948;2022-09-06T15:26:25;7.78;;;6.15;;
49942;SDS011;36011;53.362;58.948;2022-09-06T15:29:32;7.35;;;5.60;;
49942;SDS011;36011;53.362;58.948;2022-09-06T15:32:39;7.30;;;5.85;;
49942;SDS011;36011;53.362;58.948;2022-09-06T15:35:41;9.27;;;7.05;;
49942;SDS011;36011;53.362;58.948;2022-09-06T15:38:57;10.20;;;7.53;;
49942;SDS011;36011;53.362;58.948;2022-09-06T15:42:04;11.52;;;7.68;;
49942;SDS011;36011;53.362;58.948;2022-09-06T15:45:08;14.13;;;8.95;;
49942;SDS011;36011;53.362;58.948;2022-09-06T15:48:11;16.20;;;9.10;;
49942;SDS011;36011;53.362;58.948;2022-09-06T15:51:15;12.87;;;7.03;;
49942;SDS011;36011;53.362;58.948;2022-09-06T15:54:20;8.63;;;6.40;;
49942;SDS011;36011;53.362;58.948;2022-09-06T15:57:42;8.93;;;6.75;;
49942;SDS011;36011;53.362;58.948;2022-09-06T16:00:43;12.88;;;7.53;;
49942;SDS011;36011;53.362;58.948;2022-09-06T16:03:48;8.73;;;6.40;;
49942;SDS011;36011;53.362;58.948;2022-09-06T16:06:56;12.90;;;7.25;;
49942;SDS011;36011;53.362;58.948;2022-09-06T16:09:58;8.80;;;6.70;;
49942;SDS011;36011;53.362;58.948;2022-09-06T16:13:03;12.80;;;6.85;;
49942;SDS011;36011;53.362;58.948;2022-09-06T16:16:05;10.35;;;7.90;;
49942;SDS011;36011;53.362;58.948;2022-09-06T16:19:14;8.73;;;7.43;;
49942;SDS011;36011;53.362;58.948;2022-09-06T16:22:18;10.50;;;7.22;;
49942;SDS011;36011;53.362;58.948;2022-09-06T16:25:24;10.68;;;8.35;;
49942;SDS011;36011;53.362;58.948;2022-09-06T16:28:30;10.25;;;7.82;;
49942;SDS011;36011;53.362;58.948;2022-09-06T16:34:35;10.20;;;7.68;;
49942;SDS011;36011;53.362;58.948;2022-09-06T16:37:38;11.45;;;7.93;;
49942;SDS011;36011;53.362;58.948;2022-09-06T16:40:43;13.77;;;8.93;;
49942;SDS011;36011;53.362;58.948;2022-09-06T16:43:47;12.60;;;7.72;;
49942;SDS011;36011;53.362;58.948;2022-09-06T16:46:49;11.25;;;7.70;;
49942;SDS011;36011;53.362;58.948;2022-09-06T16:49:53;8.63;;;6.60;;
49942;SDS011;36011;53.362;58.948;2022-09-06T16:52:59;13.75;;;7.43;;
49942;SDS011;36011;53.362;58.948;2022-09-06T16:56:01;11.40;;;7.15;;
49942;SDS011;36011;53.362;58.948;2022-09-06T16:59:06;9.63;;;7.20;;
49942;SDS011;36011;53.362;58.948;2022-09-06T17:02:11;10.57;;;8.05;;
49942;SDS011;36011;53.362;58.948;2022-09-06T17:05:12;10.40;;;6.85;;
49942;SDS011;36011;53.362;58.948;2022-09-06T17:08:17;9.63;;;6.75;;
49942;SDS011;36011;53.362;58.948;2022-09-06T17:11:22;7.60;;;6.03;;
49942;SDS011;36011;53.362;58.948;2022-09-06T17:14:26;8.30;;;6.43;;
49942;SDS011;36011;53.362;58.948;2022-09-06T17:22:19;6.07;;;5.43;;
49942;SDS011;36011;53.362;58.948;2022-09-06T17:25:21;8.05;;;5.38;;
49942;SDS011;36011;53.362;58.948;2022-09-06T17:28:26;7.57;;;5.53;;
49942;SDS011;36011;53.362;58.948;2022-09-06T17:31:32;7.65;;;6.38;;
49942;SDS011;36011;53.362;58.948;2022-09-06T17:34:37;7.05;;;5.80;;
49942;SDS011;36011;53.362;58.948;2022-09-06T17:37:39;8.95;;;5.97;;
49942;SDS011;36011;53.362;58.948;2022-09-06T17:40:43;6.78;;;5.57;;
49942;SDS011;36011;53.362;58.948;2022-09-06T17:43:56;6.03;;;5.03;;
49942;SDS011;36011;53.362;58.948;2022-09-06T17:46:58;6.88;;;5.53;;
49942;SDS011;36011;53.362;58.948;2022-09-06T17:50:02;6.68;;;5.18;;
49942;SDS011;36011;53.362;58.948;2022-09-06T17:53:03;5.55;;;4.63;;
49942;SDS011;36011;53.362;58.948;2022-09-06T17:56:06;8.85;;;4.90;;
49942;SDS011;36011;53.362;58.948;2022-09-06T17:59:11;7.45;;;4.85;;
49942;SDS011;36011;53.362;58.948;2022-09-06T18:02:15;6.10;;;4.75;;
49942;SDS011;36011;53.362;58.948;2022-09-06T18:05:19;6.07;;;4.57;;
49942;SDS011;36011;53.362;58.948;2022-09-06T18:08:20;5.55;;;4.40;;
49942;SDS011;36011;53.362;58.948;2022-09-06T18:11:27;4.45;;;4.05;;
49942;SDS011;36011;53.362;58.948;2022-09-06T18:14:32;5.13;;;3.75;;
49942;SDS011;36011;53.362;58.948;2022-09-06T18:17:37;4.00;;;3.40;;
49942;SDS011;36011;53.362;58.948;2022-09-06T18:20:38;4.70;;;3.40;;
49942;SDS011;36011;53.362;58.948;2022-09-06T18:23:42;3.55;;;3.25;;
49942;SDS011;36011;53.362;58.948;2022-09-06T18:26:47;3.72;;;3.38;;
49942;SDS011;36011;53.362;58.948;2022-09-06T18:29:48;3.90;;;3.35;;
49942;SDS011;36011;53.362;58.948;2022-09-06T18:32:50;4.80;;;3.78;;
49942;SDS011;36011;53.362;58.948;2022-09-06T18:35:57;4.63;;;3.90;;
49942;SDS011;36011;53.362;58.948;2022-09-06T18:38:59;4.05;;;3.63;;
49942;SDS011;36011;53.362;58.948;2022-09-06T18:42:04;4.20;;;3.80;;
49942;SDS011;36011;53.362;58.948;2022-09-06T18:45:11;6.95;;;3.90;;
49942;SDS011;36011;53.362;58.948;2022-09-06T18:48:13;6.25;;;4.03;;
49942;SDS011;36011;53.362;58.948;2022-09-06T18:51:17;4.25;;;3.85;;
49942;SDS011;36011;53.362;58.948;2022-09-06T18:54:27;4.95;;;4.15;;
49942;SDS011;36011;53.362;58.948;2022-09-06T18:57:31;4.32;;;3.92;;
49942;SDS011;36011;53.362;58.948;2022-09-06T19:00:41;5.70;;;4.53;;
49942;SDS011;36011;53.362;58.948;2022-09-06T19:03:44;6.18;;;5.13;;
49942;SDS011;36011;53.362;58.948;2022-09-06T19:06:46;5.38;;;3.85;;
49942;SDS011;36011;53.362;58.948;2022-09-06T19:09:52;5.07;;;3.78;;
49942;SDS011;36011;53.362;58.948;2022-09-06T19:12:56;3.78;;;3.33;;
49942;SDS011;36011;53.362;58.948;2022-09-06T19:15:59;4.40;;;3.95;;
49942;SDS011;36011;53.362;58.948;2022-09-06T19:19:06;4.40;;;4.00;;
49942;SDS011;36011;53.362;58.948;2022-09-06T19:22:09;4.18;;;3.55;;
49942;SDS011;36011;53.362;58.948;2022-09-06T19:25:19;4.43;;;3.60;;
49942;SDS011;36011;53.362;58.948;2022-09-06T19:28:24;3.90;;;3.53;;
49942;SDS011;36011;53.362;58.948;2022-09-06T19:31:31;3.67;;;3.35;;
49942;SDS011;36011;53.362;58.948;2022-09-06T19:34:39;4.47;;;3.45;;
49942;SDS011;36011;53.362;58.948;2022-09-06T19:37:45;5.65;;;3.50;;
49942;SDS011;36011;53.362;58.948;2022-09-06T19:40:49;4.35;;;3.63;;
49942;SDS011;36011;53.362;58.948;2022-09-06T19:43:51;4.68;;;3.75;;
49942;SDS011;36011;53.362;58.948;2022-09-06T19:46:56;3.45;;;3.15;;
49942;SDS011;36011;53.362;58.948;2022-09-06T19:50:02;4.50;;;4.10;;
49942;SDS011;36011;53.362;58.948;2022-09-06T19:53:04;3.90;;;3.50;;
49942;SDS011;36011;53.362;58.948;2022-09-06T19:56:12;4.95;;;3.85;;
49942;SDS011;36011;53.362;58.948;2022-09-06T19:59:15;3.83;;;3.33;;
49942;SDS011;36011;53.362;58.948;2022-09-06T20:02:19;4.53;;;4.13;;
49942;SDS011;36011;53.362;58.948;2022-09-06T20:05:24;3.13;;;2.58;;
49942;SDS011;36011;53.362;58.948;2022-09-06T20:08:26;2.47;;;2.28;;
49942;SDS011;36011;53.362;58.948;2022-09-06T20:11:33;2.47;;;1.65;;
49942;SDS011;36011;53.362;58.948;2022-09-06T20:14:36;2.00;;;1.83;;